createdAt,value
2023-07-09T00:01:27.911Z,60.45
2023-07-09T00:03:55.644Z,61.04
2023-07-09T00:06:23.399Z,61.26
2023-07-09T00:08:51.533Z,62.01
2023-07-09T00:11:20.506Z,63.78
2023-07-09T00:13:48.251Z,63.20
2023-07-09T00:16:17.956Z,63.47
2023-07-09T00:18:45.837Z,65.29
2023-07-09T00:21:14.149Z,64.44
2023-07-09T00:23:42.680Z,63.47
2023-07-09T00:26:10.989Z,62.85
2023-07-09T00:28:40.084Z,63.46
2023-07-09T00:31:11.264Z,62.83
2023-07-09T00:33:39.973Z,64.07
2023-07-09T00:36:15.196Z,64.03
2023-07-09T00:38:49.265Z,63.80
2023-07-09T00:41:19.566Z,64.51
2023-07-09T00:43:49.473Z,65.55
2023-07-09T00:46:32.042Z,67.90
2023-07-09T00:49:04.067Z,67.18
2023-07-09T00:51:31.814Z,68.26
2023-07-09T00:54:00.760Z,66.22
2023-07-09T00:56:29.941Z,64.91
2023-07-09T00:59:01.365Z,65.42
2023-07-09T01:01:29.505Z,65.80
2023-07-09T01:04:00.216Z,65.51
2023-07-09T01:06:33.340Z,64.88
2023-07-09T01:09:04.613Z,66.53
2023-07-09T01:11:34.399Z,66.45
2023-07-09T01:14:04.915Z,67.01
2023-07-09T01:16:33.794Z,65.78
2023-07-09T01:19:02.243Z,65.49
2023-07-09T01:21:31.288Z,65.40
2023-07-09T01:23:59.299Z,64.90
2023-07-09T01:26:28.165Z,65.13
2023-07-09T01:28:56.901Z,65.23
2023-07-09T01:31:24.801Z,67.60
2023-07-09T01:33:53.025Z,70.02
2023-07-09T01:36:23.508Z,69.74
2023-07-09T01:38:55.538Z,69.97
2023-07-09T01:41:23.294Z,69.83
2023-07-09T01:43:52.664Z,67.76
2023-07-09T01:46:20.363Z,68.13
2023-07-09T01:48:51.324Z,66.86
2023-07-09T01:51:19.207Z,65.43
2023-07-09T01:53:46.943Z,67.68
2023-07-09T01:56:15.940Z,67.27
2023-07-09T01:58:43.615Z,69.55
2023-07-09T02:01:12.946Z,68.63
2023-07-09T02:03:40.697Z,69.19
2023-07-09T02:06:10.781Z,67.40
2023-07-09T02:08:39.179Z,67.42
2023-07-09T02:11:06.756Z,67.31
2023-07-09T02:13:35.831Z,66.53
2023-07-09T02:16:03.780Z,66.78
2023-07-09T02:18:31.703Z,67.82
2023-07-09T02:21:01.932Z,68.31
2023-07-09T02:23:30.180Z,68.05
2023-07-09T02:26:00.038Z,67.83
2023-07-09T02:28:27.913Z,69.76
2023-07-09T02:30:56.939Z,69.97
2023-07-09T02:33:24.703Z,68.92
2023-07-09T02:35:52.447Z,68.87
2023-07-09T02:38:20.069Z,68.22
2023-07-09T02:40:48.407Z,68.16
2023-07-09T02:43:16.868Z,67.94
2023-07-09T02:45:44.576Z,69.05
2023-07-09T02:48:14.253Z,66.36
2023-07-09T02:50:42.327Z,68.10
2023-07-09T02:53:09.980Z,69.55
2023-07-09T02:55:37.862Z,69.97
2023-07-09T02:58:05.528Z,70.75
2023-07-09T03:00:33.151Z,70.19
2023-07-09T03:03:01.018Z,68.62
2023-07-09T03:05:30.049Z,68.10
2023-07-09T03:07:57.724Z,68.56
2023-07-09T03:10:25.340Z,67.92
2023-07-09T03:12:52.984Z,71.09
2023-07-09T03:15:20.596Z,71.77
2023-07-09T03:17:48.281Z,71.61
2023-07-09T03:20:15.881Z,72.47
2023-07-09T03:22:45.145Z,72.53
2023-07-09T03:25:12.791Z,71.26
2023-07-09T03:27:42.732Z,72.05
2023-07-09T03:30:10.915Z,71.62
2023-07-09T03:32:38.514Z,68.69
2023-07-09T03:35:06.363Z,70.45
2023-07-09T03:37:33.970Z,70.05
2023-07-09T03:40:05.096Z,70.59
2023-07-09T03:42:32.796Z,71.56
2023-07-09T03:45:00.440Z,71.84
2023-07-09T03:47:28.118Z,72.42
2023-07-09T03:49:55.844Z,70.81
2023-07-09T03:52:23.618Z,69.63
2023-07-09T03:54:51.192Z,68.34
2023-07-09T03:57:20.110Z,69.83
2023-07-09T03:59:47.714Z,70.58
2023-07-09T04:02:15.332Z,71.29
2023-07-09T04:04:43.007Z,70.02
2023-07-09T04:07:10.707Z,70.26
2023-07-09T04:09:40.701Z,70.53
2023-07-09T04:12:08.911Z,71.05
2023-07-09T04:14:37.934Z,70.21
2023-07-09T04:17:05.816Z,70.51
2023-07-09T04:19:33.497Z,70.28
2023-07-09T04:22:01.219Z,69.75
2023-07-09T04:24:29.652Z,69.71
2023-07-09T04:26:57.634Z,69.23
2023-07-09T04:29:25.427Z,68.89
2023-07-09T04:31:54.357Z,67.77
2023-07-09T04:34:21.984Z,67.30
2023-07-09T04:36:49.554Z,68.74
2023-07-09T04:39:17.134Z,67.60
2023-07-09T04:41:44.828Z,67.82
2023-07-09T04:44:12.419Z,67.70
2023-07-09T04:46:40.346Z,69.02
2023-07-09T04:49:13.515Z,68.18
2023-07-09T04:51:41.183Z,67.57
2023-07-09T04:54:08.833Z,67.46
2023-07-09T04:56:37.721Z,67.83
2023-07-09T04:59:05.384Z,67.00
2023-07-09T05:01:33.063Z,67.54
2023-07-09T05:04:00.782Z,69.04
2023-07-09T05:06:29.725Z,68.80
2023-07-09T05:08:57.449Z,67.15
2023-07-09T05:11:25.046Z,68.02
2023-07-09T05:13:54.163Z,72.90
2023-07-09T05:16:22.065Z,72.53
2023-07-09T05:18:49.715Z,70.71
2023-07-09T05:21:17.438Z,68.48
2023-07-09T05:23:46.440Z,69.85
2023-07-09T05:26:14.092Z,67.75
2023-07-09T05:28:41.726Z,67.09
2023-07-09T05:31:09.426Z,66.37
2023-07-09T05:33:37.080Z,66.55
2023-07-09T05:36:05.127Z,65.18
2023-07-09T05:38:32.961Z,64.26
2023-07-09T05:41:03.619Z,65.42
2023-07-09T05:43:31.379Z,65.34
2023-07-09T05:45:59.062Z,65.16
2023-07-09T05:48:26.650Z,64.55
2023-07-09T05:51:01.786Z,63.93
2023-07-09T05:53:29.389Z,64.25
2023-07-09T05:55:57.173Z,63.75
2023-07-09T05:58:26.123Z,63.21
2023-07-09T06:00:54.793Z,63.70
2023-07-09T06:03:23.016Z,62.99
2023-07-09T06:05:50.952Z,62.00
2023-07-09T06:08:18.818Z,62.20
2023-07-09T06:10:52.975Z,61.70
2023-07-09T06:13:20.857Z,61.17
2023-07-09T06:15:50.411Z,61.24
2023-07-09T06:18:18.078Z,60.99
2023-07-09T06:20:48.560Z,61.28
2023-07-09T06:23:16.287Z,60.26
2023-07-09T06:25:44.390Z,61.17
2023-07-09T06:28:12.041Z,60.18
2023-07-09T06:30:40.705Z,59.25
2023-07-09T06:33:12.397Z,58.66
2023-07-09T06:35:40.553Z,59.08
2023-07-09T06:38:08.289Z,59.03
2023-07-09T06:40:36.453Z,57.71
2023-07-09T06:43:04.109Z,57.99
2023-07-09T06:45:37.329Z,58.24
2023-07-09T06:48:05.271Z,56.92
2023-07-09T06:50:36.776Z,57.14
2023-07-09T06:53:04.454Z,56.66
2023-07-09T06:55:32.513Z,56.45
2023-07-09T06:58:00.167Z,55.28
2023-07-09T07:00:27.970Z,54.94
2023-07-09T07:02:55.729Z,55.54
2023-07-09T07:05:39.848Z,53.80
2023-07-09T07:08:10.145Z,54.39
2023-07-09T07:10:42.287Z,52.69
2023-07-09T07:13:16.608Z,51.58
2023-07-09T07:15:46.905Z,52.09
2023-07-09T07:18:16.504Z,51.90
2023-07-09T07:20:45.850Z,52.28
2023-07-09T07:23:14.870Z,51.85
2023-07-09T07:25:43.160Z,51.54
2023-07-09T07:28:12.093Z,50.50
2023-07-09T07:30:39.978Z,50.92
2023-07-09T07:33:15.367Z,51.31
2023-07-09T07:36:24.560Z,51.33
2023-07-09T07:38:38.062Z,49.68
2023-07-09T07:41:05.718Z,48.49
2023-07-09T07:43:33.409Z,47.65
2023-07-09T07:46:01.309Z,47.33
2023-07-09T07:48:28.991Z,47.56
2023-07-09T07:51:00.370Z,47.54
2023-07-09T07:53:30.679Z,46.93
2023-07-09T07:56:08.571Z,46.31
2023-07-09T07:58:36.675Z,44.34
2023-07-09T08:01:05.010Z,43.90
2023-07-09T08:03:35.042Z,43.63
2023-07-09T08:06:03.291Z,44.41
2023-07-09T08:08:33.122Z,43.93
2023-07-09T08:11:05.948Z,42.47
2023-07-09T08:13:35.386Z,41.43
2023-07-09T08:16:03.480Z,40.96
2023-07-09T08:18:31.671Z,43.16
2023-07-09T08:21:00.219Z,41.09
2023-07-09T08:23:28.019Z,40.39
2023-07-09T08:25:55.908Z,39.79
2023-07-09T08:28:23.577Z,39.14
2023-07-09T08:30:55.001Z,38.44
2023-07-09T08:33:22.967Z,38.72
2023-07-09T08:35:51.214Z,37.21
2023-07-09T08:38:19.912Z,36.72
2023-07-09T08:40:52.459Z,35.80
2023-07-09T08:43:24.662Z,36.67
2023-07-09T08:45:59.993Z,37.64
2023-07-09T08:48:30.776Z,37.59
2023-07-09T08:51:00.993Z,37.29
2023-07-09T08:53:33.646Z,36.00
2023-07-09T08:56:01.375Z,34.31
2023-07-09T08:58:30.669Z,34.27
2023-07-09T09:01:01.938Z,36.80
2023-07-09T09:03:32.981Z,36.09
2023-07-09T09:06:00.737Z,35.43
2023-07-09T09:08:35.894Z,35.27
2023-07-09T09:11:10.408Z,36.85
2023-07-09T09:13:39.410Z,34.62
2023-07-09T09:16:24.745Z,33.63
2023-07-09T09:18:52.481Z,33.04
2023-07-09T09:21:25.390Z,34.23
2023-07-09T09:23:54.413Z,36.77
2023-07-09T09:26:25.150Z,34.24
2023-07-09T09:28:53.609Z,31.40
2023-07-09T09:31:26.817Z,32.57
2023-07-09T09:33:54.704Z,30.31
2023-07-09T09:36:24.320Z,31.98
2023-07-09T09:38:52.632Z,31.67
2023-07-09T09:41:22.476Z,32.92
2023-07-09T09:43:53.594Z,32.56
2023-07-09T09:46:23.244Z,31.18
2023-07-09T09:48:56.435Z,32.42
2023-07-09T09:51:25.930Z,28.56
2023-07-09T09:53:59.054Z,28.93
2023-07-09T09:56:29.898Z,28.94
2023-07-09T09:58:59.726Z,28.83
2023-07-09T10:01:32.104Z,29.24
2023-07-09T10:04:03.115Z,31.46
2023-07-09T10:06:38.663Z,29.67
2023-07-09T10:09:17.018Z,28.57
2023-07-09T10:11:48.868Z,28.48
2023-07-09T10:14:36.207Z,28.70
2023-07-09T10:17:16.323Z,27.83
2023-07-09T10:19:58.227Z,26.09
2023-07-09T10:22:43.982Z,26.02
2023-07-09T10:25:25.804Z,25.89
2023-07-09T10:28:08.626Z,26.04
2023-07-09T10:30:45.205Z,25.15
2023-07-09T10:33:16.064Z,24.04
2023-07-09T10:35:53.222Z,26.47
2023-07-09T10:38:43.099Z,24.69
2023-07-09T10:41:24.560Z,25.46
2023-07-09T10:43:59.890Z,24.07
2023-07-09T10:46:30.311Z,24.30
2023-07-09T10:49:00.611Z,23.44
2023-07-09T10:51:39.207Z,24.33
2023-07-09T10:54:17.483Z,23.63
2023-07-09T10:56:52.109Z,23.72
2023-07-09T10:59:24.814Z,24.04
2023-07-09T11:02:01.205Z,24.76
2023-07-09T11:04:35.592Z,23.18
2023-07-09T11:07:08.801Z,24.08
2023-07-09T11:09:41.889Z,23.00
2023-07-09T11:12:15.842Z,23.08
2023-07-09T11:14:49.762Z,23.80
2023-07-09T11:17:21.189Z,23.58
2023-07-09T11:19:51.075Z,25.38
2023-07-09T11:22:25.128Z,24.38
2023-07-09T11:24:56.713Z,23.13
2023-07-09T11:27:26.312Z,22.21
2023-07-09T11:30:02.358Z,23.94
2023-07-09T11:32:30.909Z,23.37
2023-07-09T11:35:09.608Z,22.44
2023-07-09T11:37:48.072Z,22.63
2023-07-09T11:40:20.087Z,22.08
2023-07-09T11:42:54.432Z,21.92
2023-07-09T11:45:27.591Z,20.17
2023-07-09T11:48:05.272Z,20.67
2023-07-09T11:50:36.661Z,19.95
2023-07-09T11:53:19.025Z,21.02
2023-07-09T11:55:48.795Z,21.69
2023-07-09T11:58:19.173Z,21.93
2023-07-09T12:00:49.869Z,21.23
2023-07-09T12:03:21.934Z,20.57
2023-07-09T12:05:53.634Z,19.84
2023-07-09T12:08:29.580Z,20.31
2023-07-09T12:10:57.341Z,20.68
2023-07-09T12:13:25.266Z,20.85
2023-07-09T12:15:53.199Z,22.19
2023-07-09T12:18:21.132Z,21.71
2023-07-09T12:20:53.104Z,18.77
2023-07-09T12:23:30.043Z,20.25
2023-07-09T12:26:02.287Z,21.38
2023-07-09T12:28:31.440Z,20.42
2023-07-09T12:30:59.240Z,20.58
2023-07-09T12:33:29.006Z,20.26
2023-07-09T12:35:59.312Z,21.28
2023-07-09T12:38:32.384Z,20.25
2023-07-09T12:41:03.164Z,20.71
2023-07-09T12:43:32.983Z,19.98
2023-07-09T12:46:01.991Z,20.36
2023-07-09T12:48:31.832Z,20.87
2023-07-09T12:51:02.139Z,20.70
2023-07-09T12:53:31.596Z,20.90
2023-07-09T12:56:01.618Z,21.39
2023-07-09T12:58:31.987Z,21.15
2023-07-09T13:01:02.405Z,21.66
2023-07-09T13:03:33.573Z,21.87
2023-07-09T13:06:04.675Z,22.08
2023-07-09T13:08:42.173Z,20.58
2023-07-09T13:11:16.839Z,20.06
2023-07-09T13:13:56.643Z,20.45
2023-07-09T13:16:24.557Z,20.88
2023-07-09T13:18:52.481Z,20.07
2023-07-09T13:21:22.574Z,19.50
2023-07-09T13:23:53.351Z,19.25
2023-07-09T13:26:21.204Z,20.10
2023-07-09T13:28:50.945Z,19.61
2023-07-09T13:31:22.676Z,19.89
2023-07-09T13:33:56.238Z,19.64
2023-07-09T13:36:24.103Z,19.53
2023-07-09T13:38:53.401Z,20.46
2023-07-09T13:41:23.611Z,19.85
2023-07-09T13:43:54.386Z,20.07
2023-07-09T13:46:26.828Z,20.42
2023-07-09T13:48:54.827Z,19.48
2023-07-09T13:51:25.391Z,19.67
2023-07-09T13:53:56.826Z,20.31
2023-07-09T13:56:25.755Z,20.37
2023-07-09T13:58:54.094Z,21.25
2023-07-09T14:01:25.184Z,21.34
2023-07-09T14:04:00.516Z,20.99
2023-07-09T14:06:28.523Z,21.63
2023-07-09T14:08:57.634Z,22.82
2023-07-09T14:11:27.888Z,20.83
2023-07-09T14:13:56.636Z,21.04
2023-07-09T14:16:26.781Z,21.42
2023-07-09T14:18:55.048Z,21.13
2023-07-09T14:21:26.475Z,21.08
2023-07-09T14:23:54.961Z,21.60
2023-07-09T14:26:24.220Z,21.54
2023-07-09T14:28:52.154Z,20.78
2023-07-09T14:31:25.427Z,20.88
2023-07-09T14:33:56.641Z,21.56
2023-07-09T14:36:24.739Z,22.95
2023-07-09T14:38:52.556Z,22.30
2023-07-09T14:41:26.411Z,22.32
2023-07-09T14:43:56.898Z,22.76
2023-07-09T14:46:24.735Z,22.39
2023-07-09T14:48:52.573Z,22.59
2023-07-09T14:51:21.130Z,22.12
2023-07-09T14:53:49.419Z,21.59
2023-07-09T14:56:17.601Z,22.40
2023-07-09T14:58:47.048Z,21.99
2023-07-09T15:01:16.120Z,21.61
2023-07-09T15:03:45.362Z,21.44
2023-07-09T15:06:13.508Z,22.46
2023-07-09T15:08:41.396Z,22.19
2023-07-09T15:11:11.640Z,22.76
2023-07-09T15:13:39.486Z,23.43
2023-07-09T15:16:08.819Z,23.43
2023-07-09T15:18:37.801Z,23.08
2023-07-09T15:21:06.646Z,22.68
2023-07-09T15:23:41.660Z,22.71
2023-07-09T15:26:15.008Z,23.01
2023-07-09T15:28:43.099Z,23.64
2023-07-09T15:31:14.795Z,22.61
2023-07-09T15:33:43.043Z,22.77
2023-07-09T15:36:13.157Z,23.00
2023-07-09T15:38:43.064Z,22.92
2023-07-09T15:41:14.038Z,23.22
2023-07-09T15:43:44.341Z,23.59
2023-07-09T15:46:19.999Z,23.73
2023-07-09T15:48:48.888Z,24.32
2023-07-09T15:51:16.796Z,23.21
2023-07-09T15:53:44.599Z,22.92
2023-07-09T15:56:18.144Z,22.52
2023-07-09T15:58:48.110Z,23.11
2023-07-09T16:01:17.782Z,22.77
2023-07-09T16:03:49.713Z,22.32
2023-07-09T16:06:20.933Z,23.15
2023-07-09T16:08:49.062Z,22.95
2023-07-09T16:11:18.401Z,22.60
2023-07-09T16:13:47.489Z,23.00
2023-07-09T16:16:22.630Z,23.26
2023-07-09T16:18:52.921Z,23.07
2023-07-09T16:21:26.375Z,22.94
2023-07-09T16:23:55.192Z,23.10
2023-07-09T16:26:24.099Z,23.43
2023-07-09T16:28:52.528Z,23.73
2023-07-09T16:31:21.840Z,24.53
2023-07-09T16:33:49.924Z,24.75
2023-07-09T16:36:19.720Z,22.89
2023-07-09T16:38:48.239Z,24.63
2023-07-09T16:41:20.516Z,25.93
2023-07-09T16:43:48.516Z,26.77
2023-07-09T16:46:21.940Z,24.97
2023-07-09T16:48:55.481Z,25.34
2023-07-09T16:51:23.625Z,24.34
2023-07-09T16:53:52.117Z,23.86
2023-07-09T16:56:20.856Z,23.88
2023-07-09T16:58:48.843Z,23.46
2023-07-09T17:01:16.726Z,24.54
2023-07-09T17:03:44.601Z,26.12
2023-07-09T17:06:14.113Z,26.56
2023-07-09T17:08:42.153Z,27.39
2023-07-09T17:11:11.935Z,28.92
2023-07-09T17:13:42.409Z,29.62
2023-07-09T17:16:12.627Z,29.99
2023-07-09T17:18:40.399Z,30.87
2023-07-09T17:21:10.216Z,31.36
2023-07-09T17:23:40.227Z,29.18
2023-07-09T17:26:09.297Z,30.71
2023-07-09T17:28:37.133Z,29.80
2023-07-09T17:31:05.050Z,31.85
2023-07-09T17:33:33.273Z,32.63
2023-07-09T17:36:01.335Z,32.42
2023-07-09T17:38:35.579Z,31.41
2023-07-09T17:41:05.546Z,33.19
2023-07-09T17:43:33.482Z,30.87
2023-07-09T17:46:03.339Z,32.19
2023-07-09T17:48:37.209Z,31.85
2023-07-09T17:51:05.682Z,33.40
2023-07-09T17:53:37.109Z,34.67
2023-07-09T17:56:20.098Z,34.55
2023-07-09T17:58:49.059Z,33.86
2023-07-09T18:01:17.023Z,34.49
2023-07-09T18:03:44.904Z,34.84
2023-07-09T18:06:17.098Z,33.21
2023-07-09T18:08:47.910Z,34.96
2023-07-09T18:11:29.110Z,33.67
2023-07-09T18:14:01.544Z,33.40
2023-07-09T18:16:29.690Z,33.51
2023-07-09T18:19:03.127Z,34.29
2023-07-09T18:21:31.087Z,32.20
2023-07-09T18:23:58.810Z,33.97
2023-07-09T18:26:32.001Z,35.19
2023-07-09T18:28:59.882Z,35.27
2023-07-09T18:31:30.000Z,34.92
2023-07-09T18:33:57.854Z,35.52
2023-07-09T18:36:25.664Z,36.19
2023-07-09T18:38:53.533Z,37.72
2023-07-09T18:41:21.307Z,36.61
2023-07-09T18:43:51.276Z,35.12
2023-07-09T18:46:19.206Z,36.32
2023-07-09T18:48:47.794Z,38.23
2023-07-09T18:51:16.569Z,37.69
2023-07-09T18:53:45.055Z,36.81
2023-07-09T18:56:12.813Z,36.77
2023-07-09T18:58:40.612Z,38.01
2023-07-09T19:01:20.217Z,38.88
2023-07-09T19:03:48.339Z,38.72
2023-07-09T19:06:16.234Z,38.28
2023-07-09T19:08:44.141Z,37.88
2023-07-09T19:11:11.989Z,38.15
2023-07-09T19:13:39.821Z,37.97
2023-07-09T19:16:24.654Z,38.90
2023-07-09T19:18:53.274Z,38.82
2023-07-09T19:21:21.130Z,39.47
2023-07-09T19:23:49.047Z,40.39
2023-07-09T19:26:16.895Z,39.96
2023-07-09T19:28:46.343Z,39.62
2023-07-09T19:31:14.301Z,40.45
2023-07-09T19:33:43.563Z,42.28
2023-07-09T19:36:23.318Z,40.69
2023-07-09T19:38:53.224Z,40.63
2023-07-09T19:41:22.423Z,40.36
2023-07-09T19:43:50.492Z,41.06
2023-07-09T19:46:21.495Z,40.83
2023-07-09T19:48:51.202Z,40.94
2023-07-09T19:51:19.107Z,40.96
2023-07-09T19:53:46.962Z,40.90
2023-07-09T19:56:14.770Z,41.19
2023-07-09T19:58:42.628Z,41.72
2023-07-09T20:01:13.248Z,41.64
2023-07-09T20:03:41.442Z,42.32
2023-07-09T20:06:12.410Z,42.63
2023-07-09T20:08:42.491Z,42.11
2023-07-09T20:11:13.142Z,42.24
2023-07-09T20:13:41.311Z,42.26
2023-07-09T20:16:21.678Z,42.33
2023-07-09T20:18:49.472Z,43.72
2023-07-09T20:21:21.470Z,43.59
2023-07-09T20:23:49.249Z,43.53
2023-07-09T20:26:17.542Z,43.54
2023-07-09T20:28:45.503Z,43.60
2023-07-09T20:31:20.720Z,43.18
2023-07-09T20:33:48.752Z,43.38
2023-07-09T20:36:17.951Z,44.00
2023-07-09T20:38:45.770Z,43.50
2023-07-09T20:41:20.398Z,43.18
2023-07-09T20:43:48.941Z,43.34
2023-07-09T20:46:17.838Z,45.84
2023-07-09T20:48:45.742Z,44.68
2023-07-09T20:51:13.603Z,44.64
2023-07-09T20:53:45.231Z,44.64
2023-07-09T20:56:16.405Z,44.17
2023-07-09T20:58:44.282Z,44.34
2023-07-09T21:01:17.891Z,44.38
2023-07-09T21:03:45.888Z,44.78
2023-07-09T21:06:17.484Z,45.36
2023-07-09T21:08:46.762Z,44.82
2023-07-09T21:11:14.685Z,44.98
2023-07-09T21:13:42.589Z,45.02
2023-07-09T21:16:20.918Z,44.28
2023-07-09T21:18:48.979Z,43.84
2023-07-09T21:21:17.517Z,44.09
2023-07-09T21:23:46.780Z,44.03
2023-07-09T21:26:16.894Z,44.09
2023-07-09T21:28:44.738Z,44.18
2023-07-09T21:31:19.574Z,43.73
2023-07-09T21:33:47.622Z,45.67
2023-07-09T21:36:15.497Z,44.67
2023-07-09T21:38:43.287Z,45.46
2023-07-09T21:41:12.472Z,46.55
2023-07-09T21:43:40.248Z,47.05
2023-07-09T21:46:20.153Z,47.86
2023-07-09T21:48:50.366Z,46.00
2023-07-09T21:51:18.233Z,47.24
2023-07-09T21:54:15.455Z,46.76
2023-07-09T21:56:35.149Z,46.52
2023-07-09T21:59:04.089Z,47.13
2023-07-09T22:01:31.977Z,48.56
2023-07-09T22:04:00.719Z,48.73
2023-07-09T22:06:28.648Z,49.89
2023-07-09T22:08:56.493Z,48.53
2023-07-09T22:11:28.060Z,49.52
2023-07-09T22:13:59.777Z,48.20
2023-07-09T22:16:29.906Z,48.50
2023-07-09T22:18:59.911Z,47.80
2023-07-09T22:21:29.762Z,47.85
2023-07-09T22:23:57.578Z,48.84
2023-07-09T22:26:25.400Z,48.65
2023-07-09T22:28:53.248Z,48.00
2023-07-09T22:31:22.624Z,49.02
2023-07-09T22:33:51.637Z,48.75
2023-07-09T22:36:19.691Z,47.58
2023-07-09T22:38:47.637Z,49.48
2023-07-09T22:41:15.537Z,52.96
2023-07-09T22:43:43.710Z,53.03
2023-07-09T22:46:17.426Z,52.93
2023-07-09T22:48:47.616Z,52.21
2023-07-09T22:51:16.026Z,52.68
2023-07-09T22:53:43.861Z,52.75
2023-07-09T22:56:11.859Z,51.90
2023-07-09T22:58:39.725Z,52.33
2023-07-09T23:01:15.102Z,51.51
2023-07-09T23:03:44.388Z,50.97
2023-07-09T23:06:16.232Z,50.43
2023-07-09T23:08:44.988Z,51.80
2023-07-09T23:11:14.871Z,51.51
2023-07-09T23:13:43.382Z,51.79
2023-07-09T23:16:16.280Z,50.79
2023-07-09T23:18:47.781Z,50.72
2023-07-09T23:21:20.678Z,50.47
2023-07-09T23:23:49.112Z,51.13
2023-07-09T23:26:17.826Z,51.16
2023-07-09T23:28:45.668Z,52.54
2023-07-09T23:31:28.699Z,52.16
2023-07-09T23:33:58.420Z,51.24
2023-07-09T23:36:28.460Z,50.91
2023-07-09T23:38:56.539Z,51.08
2023-07-09T23:41:26.790Z,52.59
2023-07-09T23:43:56.803Z,52.07
2023-07-09T23:46:27.162Z,51.10
2023-07-09T23:49:04.965Z,51.05
2023-07-09T23:51:40.032Z,51.72
2023-07-09T23:54:10.290Z,52.50
2023-07-09T23:56:38.507Z,53.05
2023-07-09T23:59:07.970Z,52.66
